Carnival Glory — 3FPS9 — position and weather

sailwx.info

Track history (hours):
 
Tides and Currents Weather Stations Pressure Air Temp Water Temp Dewpoint Dewpoint Depression Visibility Wind Speed Wind Dir Waves Ship Positions

Carnival Glory

Operator: Carnival Cruise Lines

Last reported at 2018-Aug-14 05:00 UTC. Time now 2018-Aug-14 15:20 UTC.
Position N 18°24' W 086°54'.

Type: Passenger vessel. MMSI: 357659000.

Wind from 050 at 20 knots

Barometer 1014.5 mb
Air temperature 26.0 ° C
Visibility: greater than 10.8 NM
Dewpoint 21.5 ° C
Water temperature 30.0 ° C

Date/timePositionNaut miles runAvg speedWind from/ knotsBaromVisibWave heightAir tempDewpointWater temp
2018-Aug-14 05:00N 18°24' W 086°54'11818.1 050 / 201014.510.8 26.021.530.0
2018-Aug-13 22:31N 20°21' W 087°05'016.5
2018-Aug-13 22:30N 20°21' W 087°05'815.3
2018-Aug-13 22:00N 20°28' W 087°02'3 5.3
2018-Aug-13 21:31N 20°29' W 086°59'0 0.0
2018-Aug-13 21:01N 20°29' W 086°59'0 0.0
2018-Aug-13 20:31N 20°29' W 086°59'0 0.0
2018-Aug-13 19:58N 20°29' W 086°59'0 0.0
2018-Aug-13 19:31N 20°29' W 086°59'0 0.0
2018-Aug-13 18:58N 20°29' W 086°59'0 0.0
2018-Aug-13 18:31N 20°29' W 086°59'0 0.0
2018-Aug-13 17:58N 20°29' W 086°59'0 0.0
2018-Aug-13 17:28N 20°29' W 086°59'0 0.0
2018-Aug-13 17:01N 20°29' W 086°59'0 0.0
2018-Aug-13 16:31N 20°29' W 086°59'0 0.0
2018-Aug-13 15:58N 20°29' W 086°59'0 0.0
2018-Aug-13 15:31N 20°29' W 086°59'0 0.0
2018-Aug-13 15:01N 20°29' W 086°59'0 0.0
2018-Aug-13 14:31N 20°29' W 086°59'0 0.0
2018-Aug-13 14:01N 20°29' W 086°59'0 0.0
2018-Aug-13 13:28N 20°29' W 086°59'0 0.0
2018-Aug-13 13:01N 20°29' W 086°59'0 0.0
2018-Aug-13 12:25N 20°29' W 086°59'0 0.0
2018-Aug-13 12:01N 20°29' W 086°59'0 0.1
2018-Aug-13 11:31N 20°29' W 086°59'2 4.8
2018-Aug-13 11:00N 20°31' W 086°59'5 9.0
2018-Aug-13 10:30N 20°35' W 086°57'6812.4
2018-Aug-13 05:00N 21°18' W 086°00'2120.6 090 / 151016.410.8 26.023.130.0
2018-Aug-13 04:00N 21°30' W 085°42'16815.3 100 / 201016.910.8 27.024.124.0
2018-Aug-12 17:00N 23°12' W 083°18'15815.8 090 / 101018.610.8 29.024.831.0
2018-Aug-12 07:00N 24°06' W 080°36'6115.2 090 / 51016.210.8 26.021.531.0
2018-Aug-12 03:00N 24°42' W 079°42'3316.1 150 / 151016.9 5.4 28.023.7 3.0
2018-Aug-12 00:56N 25°15' W 079°39'614.6
2018-Aug-12 00:30N 25°21' W 079°39'714.2
2018-Aug-12 00:00N 25°28' W 079°39'714.7
2018-Aug-11 23:31N 25°33' W 079°45'714.8
2018-Aug-11 23:01N 25°38' W 079°52'714.1
2018-Aug-11 22:30N 25°43' W 079°57'714.2
2018-Aug-11 22:00N 25°46' W 080°04'5 9.4
2018-Aug-11 21:30N 25°46' W 080°09'1 1.7
2018-Aug-11 21:00N 25°47' W 080°10'0 0.7
2018-Aug-11 20:30N 25°47' W 080°10'0 0.0
2018-Aug-11 19:57N 25°47' W 080°10'0 0.0
2018-Aug-11 19:30N 25°47' W 080°10'0 0.0
2018-Aug-11 18:54N 25°47' W 080°10'0 0.0
2018-Aug-11 18:30N 25°47' W 080°10'0 0.0
2018-Aug-11 17:57N 25°47' W 080°10'0 0.0
2018-Aug-11 17:27N 25°47' W 080°10'0 0.0
2018-Aug-11 16:57N 25°47' W 080°10'0 0.0
2018-Aug-11 16:27N 25°47' W 080°10'0 0.0
2018-Aug-11 15:57N 25°47' W 080°10'0 0.0
2018-Aug-11 15:30N 25°47' W 080°10'0 0.0
2018-Aug-11 15:00N 25°47' W 080°10'0 0.0
2018-Aug-11 14:30N 25°47' W 080°10'0 0.0
2018-Aug-11 14:00N 25°47' W 080°10'0 0.0
2018-Aug-11 13:30N 25°47' W 080°10'0 0.0
2018-Aug-11 13:00N 25°47' W 080°10'0 0.8
2018-Aug-11 12:30N 25°46' W 080°10'510.1
2018-Aug-11 12:00N 25°46' W 080°04'713.4
2018-Aug-11 11:30N 25°44' W 079°57'1121.6
2018-Aug-11 11:00N 25°39' W 079°46'1224.0
2018-Aug-11 10:30N 25°28' W 079°41'9821.6
2018-Aug-11 06:00N 23°54' W 079°12'7223.8 110 / 101015.9 26.021.530.0
2018-Aug-11 03:00N 22°48' W 078°42'20720.7 040 / 151017.9 28.023.726.0
2018-Aug-10 17:00N 21°12' W 075°24'44412.3 080 / 101017.010.8 29.024.830.0
2018-Aug-09 05:00N 19°12' W 067°48'4120.7 080 / 151017.010.8 26.021.529.0
2018-Aug-09 03:00N 19°00' W 067°06'87 4.0 090 / 151016.910.8 28.023.729.0
2018-Aug-08 05:00N 18°42' W 065°36'203 8.4 080 / 201017.310.8 26.021.529.0
2018-Aug-07 05:00N 20°24' W 068°42'6220.7 100 / 211017.310.8 26.023.129.0
2018-Aug-07 02:00N 21°00' W 069°36'194 8.4 090 / 231014.910.8 27.022.626.0
2018-Aug-06 03:00N 22°48' W 072°30'17015.5 070 / 201014.9 5.4 27.024.126.0
2018-Aug-05 16:00N 24°42' W 074°48'2424.3 050 / 201019.210.8 29.024.830.0
2018-Aug-05 15:00N 25°00' W 075°06'12115.2 090 / 171019.927.0 28.023.725.0
2018-Aug-05 07:00N 25°42' W 077°12'5418.1 090 / 181018.910.8 26.021.531.0
2018-Aug-05 04:00N 26°06' W 078°06'6516.5 090 / 201019.927.0 27.024.126.0
2018-Aug-05 00:05N 26°15' W 079°17'116.9
2018-Aug-05 00:00N 26°14' W 079°19'817.3
2018-Aug-04 23:30N 26°09' W 079°27'918.3
2018-Aug-04 23:00N 26°02' W 079°33'918.0
2018-Aug-04 22:30N 25°57' W 079°41'918.1
2018-Aug-04 22:00N 25°52' W 079°49'815.9
2018-Aug-04 21:31N 25°49' W 079°58'713.8
2018-Aug-04 21:00N 25°46' W 080°05'5 9.1
2018-Aug-04 20:31N 25°47' W 080°10'0 0.1
2018-Aug-04 19:50N 25°46' W 080°10'0 0.0
2018-Aug-04 19:26N 25°46' W 080°10'0 0.0
2018-Aug-04 18:56N 25°46' W 080°10'0 0.0
2018-Aug-04 18:26N 25°46' W 080°10'0 0.0
2018-Aug-04 17:56N 25°46' W 080°10'0 0.0
2018-Aug-04 17:26N 25°46' W 080°10'0 0.0
2018-Aug-04 16:56N 25°46' W 080°10'0 0.0
2018-Aug-04 16:26N 25°46' W 080°10'0 0.0
2018-Aug-04 15:56N 25°46' W 080°10'0 0.0
2018-Aug-04 15:26N 25°46' W 080°10'0 0.0
2018-Aug-04 14:56N 25°46' W 080°10'0 0.0
2018-Aug-04 14:26N 25°46' W 080°10'0 0.0
2018-Aug-04 13:56N 25°46' W 080°10'0 0.0
2018-Aug-04 13:26N 25°46' W 080°10'0 0.0
2018-Aug-04 12:56N 25°46' W 080°10'0 0.0
2018-Aug-04 12:26N 25°46' W 080°10'0 0.0
2018-Aug-04 11:56N 25°46' W 080°10'0 0.0
2018-Aug-04 11:26N 25°46' W 080°10'0 0.0
2018-Aug-04 10:50N 25°46' W 080°10'0 0.0
2018-Aug-04 10:26N 25°46' W 080°10'0 0.0
2018-Aug-04 10:00N 25°46' W 080°10'1 2.4
2018-Aug-04 09:30N 25°47' W 080°11'3 5.4
2018-Aug-04 09:00N 25°46' W 080°08'611.2
2018-Aug-04 08:30N 25°47' W 080°02'5 9.9
2018-Aug-04 08:00N 25°45' W 079°57'510.6
2018-Aug-04 07:30N 25°42' W 079°52'611.8
2018-Aug-04 07:00N 25°39' W 079°47'714.7
2018-Aug-04 06:30N 25°33' W 079°42'815.2
2018-Aug-04 06:00N 25°26' W 079°40'  
Track history (hours):
 
Tides and Currents Weather Stations Pressure Air Temp Water Temp Dewpoint Dewpoint Depression Visibility Wind Speed Wind Dir Waves Ship Positions

Carnival Glory

Operator: Carnival Cruise Lines

Last reported at 2018-Aug-14 05:00 UTC. Time now 2018-Aug-14 15:20 UTC.
Position N 18°24' W 086°54'.

Type: Passenger vessel. MMSI: 357659000.

Wind from 050 at 20 knots

Barometer 1014.5 mb
Air temperature 26.0 ° C
Visibility: greater than 10.8 NM
Dewpoint 21.5 ° C
Water temperature 30.0 ° C

Date/timePositionNaut miles runAvg speedWind from/ knotsBaromVisibWave heightAir tempDewpointWater temp
2018-Aug-14 05:00N 18°24' W 086°54'11818.1 050 / 201014.510.8 26.021.530.0
2018-Aug-13 22:31N 20°21' W 087°05'016.5
2018-Aug-13 22:30N 20°21' W 087°05'815.3
2018-Aug-13 22:00N 20°28' W 087°02'3 5.3
2018-Aug-13 21:31N 20°29' W 086°59'0 0.0
2018-Aug-13 21:01N 20°29' W 086°59'0 0.0
2018-Aug-13 20:31N 20°29' W 086°59'0 0.0
2018-Aug-13 19:58N 20°29' W 086°59'0 0.0
2018-Aug-13 19:31N 20°29' W 086°59'0 0.0
2018-Aug-13 18:58N 20°29' W 086°59'0 0.0
2018-Aug-13 18:31N 20°29' W 086°59'0 0.0
2018-Aug-13 17:58N 20°29' W 086°59'0 0.0
2018-Aug-13 17:28N 20°29' W 086°59'0 0.0
2018-Aug-13 17:01N 20°29' W 086°59'0 0.0
2018-Aug-13 16:31N 20°29' W 086°59'0 0.0
2018-Aug-13 15:58N 20°29' W 086°59'0 0.0
2018-Aug-13 15:31N 20°29' W 086°59'0 0.0
2018-Aug-13 15:01N 20°29' W 086°59'0 0.0
2018-Aug-13 14:31N 20°29' W 086°59'0 0.0
2018-Aug-13 14:01N 20°29' W 086°59'0 0.0
2018-Aug-13 13:28N 20°29' W 086°59'0 0.0
2018-Aug-13 13:01N 20°29' W 086°59'0 0.0
2018-Aug-13 12:25N 20°29' W 086°59'0 0.0
2018-Aug-13 12:01N 20°29' W 086°59'0 0.1
2018-Aug-13 11:31N 20°29' W 086°59'2 4.8
2018-Aug-13 11:00N 20°31' W 086°59'5 9.0
2018-Aug-13 10:30N 20°35' W 086°57'6812.4
2018-Aug-13 05:00N 21°18' W 086°00'2120.6 090 / 151016.410.8 26.023.130.0
2018-Aug-13 04:00N 21°30' W 085°42'16815.3 100 / 201016.910.8 27.024.124.0
2018-Aug-12 17:00N 23°12' W 083°18'15815.8 090 / 101018.610.8 29.024.831.0
2018-Aug-12 07:00N 24°06' W 080°36'6115.2 090 / 51016.210.8 26.021.531.0
2018-Aug-12 03:00N 24°42' W 079°42'3316.1 150 / 151016.9 5.4 28.023.7 3.0
2018-Aug-12 00:56N 25°15' W 079°39'614.6
2018-Aug-12 00:30N 25°21' W 079°39'714.2
2018-Aug-12 00:00N 25°28' W 079°39'714.7
2018-Aug-11 23:31N 25°33' W 079°45'714.8
2018-Aug-11 23:01N 25°38' W 079°52'714.1
2018-Aug-11 22:30N 25°43' W 079°57'714.2
2018-Aug-11 22:00N 25°46' W 080°04'5 9.4
2018-Aug-11 21:30N 25°46' W 080°09'1 1.7
2018-Aug-11 21:00N 25°47' W 080°10'0 0.7
2018-Aug-11 20:30N 25°47' W 080°10'0 0.0
2018-Aug-11 19:57N 25°47' W 080°10'0 0.0
2018-Aug-11 19:30N 25°47' W 080°10'0 0.0
2018-Aug-11 18:54N 25°47' W 080°10'0 0.0
2018-Aug-11 18:30N 25°47' W 080°10'0 0.0
2018-Aug-11 17:57N 25°47' W 080°10'0 0.0
2018-Aug-11 17:27N 25°47' W 080°10'0 0.0
2018-Aug-11 16:57N 25°47' W 080°10'0 0.0
2018-Aug-11 16:27N 25°47' W 080°10'0 0.0
2018-Aug-11 15:57N 25°47' W 080°10'0 0.0
2018-Aug-11 15:30N 25°47' W 080°10'0 0.0
2018-Aug-11 15:00N 25°47' W 080°10'0 0.0
2018-Aug-11 14:30N 25°47' W 080°10'0 0.0
2018-Aug-11 14:00N 25°47' W 080°10'0 0.0
2018-Aug-11 13:30N 25°47' W 080°10'0 0.0
2018-Aug-11 13:00N 25°47' W 080°10'0 0.8
2018-Aug-11 12:30N 25°46' W 080°10'510.1
2018-Aug-11 12:00N 25°46' W 080°04'713.4
2018-Aug-11 11:30N 25°44' W 079°57'1121.6
2018-Aug-11 11:00N 25°39' W 079°46'1224.0
2018-Aug-11 10:30N 25°28' W 079°41'9821.6
2018-Aug-11 06:00N 23°54' W 079°12'7223.8 110 / 101015.9 26.021.530.0
2018-Aug-11 03:00N 22°48' W 078°42'20720.7 040 / 151017.9 28.023.726.0
2018-Aug-10 17:00N 21°12' W 075°24'44412.3 080 / 101017.010.8 29.024.830.0
2018-Aug-09 05:00N 19°12' W 067°48'4120.7 080 / 151017.010.8 26.021.529.0
2018-Aug-09 03:00N 19°00' W 067°06'87 4.0 090 / 151016.910.8 28.023.729.0
2018-Aug-08 05:00N 18°42' W 065°36'203 8.4 080 / 201017.310.8 26.021.529.0
2018-Aug-07 05:00N 20°24' W 068°42'6220.7 100 / 211017.310.8 26.023.129.0
2018-Aug-07 02:00N 21°00' W 069°36'194 8.4 090 / 231014.910.8 27.022.626.0
2018-Aug-06 03:00N 22°48' W 072°30'17015.5 070 / 201014.9 5.4 27.024.126.0
2018-Aug-05 16:00N 24°42' W 074°48'2424.3 050 / 201019.210.8 29.024.830.0
2018-Aug-05 15:00N 25°00' W 075°06'12115.2 090 / 171019.927.0 28.023.725.0
2018-Aug-05 07:00N 25°42' W 077°12'5418.1 090 / 181018.910.8 26.021.531.0
2018-Aug-05 04:00N 26°06' W 078°06'6516.5 090 / 201019.927.0 27.024.126.0
2018-Aug-05 00:05N 26°15' W 079°17'116.9
2018-Aug-05 00:00N 26°14' W 079°19'817.3
2018-Aug-04 23:30N 26°09' W 079°27'918.3
2018-Aug-04 23:00N 26°02' W 079°33'918.0
2018-Aug-04 22:30N 25°57' W 079°41'918.1
2018-Aug-04 22:00N 25°52' W 079°49'815.9
2018-Aug-04 21:31N 25°49' W 079°58'713.8
2018-Aug-04 21:00N 25°46' W 080°05'5 9.1
2018-Aug-04 20:31N 25°47' W 080°10'0 0.1
2018-Aug-04 19:50N 25°46' W 080°10'0 0.0
2018-Aug-04 19:26N 25°46' W 080°10'0 0.0
2018-Aug-04 18:56N 25°46' W 080°10'0 0.0
2018-Aug-04 18:26N 25°46' W 080°10'0 0.0
2018-Aug-04 17:56N 25°46' W 080°10'0 0.0
2018-Aug-04 17:26N 25°46' W 080°10'0 0.0
2018-Aug-04 16:56N 25°46' W 080°10'0 0.0
2018-Aug-04 16:26N 25°46' W 080°10'0 0.0
2018-Aug-04 15:56N 25°46' W 080°10'0 0.0
2018-Aug-04 15:26N 25°46' W 080°10'0 0.0
2018-Aug-04 14:56N 25°46' W 080°10'0 0.0
2018-Aug-04 14:26N 25°46' W 080°10'0 0.0
2018-Aug-04 13:56N 25°46' W 080°10'0 0.0
2018-Aug-04 13:26N 25°46' W 080°10'0 0.0
2018-Aug-04 12:56N 25°46' W 080°10'0 0.0
2018-Aug-04 12:26N 25°46' W 080°10'0 0.0
2018-Aug-04 11:56N 25°46' W 080°10'0 0.0
2018-Aug-04 11:26N 25°46' W 080°10'0 0.0
2018-Aug-04 10:50N 25°46' W 080°10'0 0.0
2018-Aug-04 10:26N 25°46' W 080°10'0 0.0
2018-Aug-04 10:00N 25°46' W 080°10'1 2.4
2018-Aug-04 09:30N 25°47' W 080°11'3 5.4
2018-Aug-04 09:00N 25°46' W 080°08'611.2
2018-Aug-04 08:30N 25°47' W 080°02'5 9.9
2018-Aug-04 08:00N 25°45' W 079°57'510.6
2018-Aug-04 07:30N 25°42' W 079°52'611.8
2018-Aug-04 07:00N 25°39' W 079°47'714.7
2018-Aug-04 06:30N 25°33' W 079°42'815.2
2018-Aug-04 06:00N 25°26' W 079°40'  

Dump ship's entire track history